Time;durP1;ratioP1;P1;durP2;ratioP2;P2;SDS_P1;SDS_P2;PMS_P1;PMS_P2;Temp;Humidity;BMP_temperature;BMP_pressure;BME280_temperature;BME280_humidity;BME280_pressure;Samples;Min_cycle;Max_cycle;Signal;HPM_P1;HPM_P2
2023/10/19 00:00:22;;;;;;;;;;;;;;;9.94;100.00;96598.78;5100886;28;19932;-68
2023/10/19 00:02:51;;;;;;;;;;;;;;;9.96;100.00;96595.84;5093900;28;20034;-68
2023/10/19 00:05:18;;;;;;;;;;;;;;;9.95;100.00;96599.56;5101281;28;19964;-69
2023/10/19 00:07:44;;;;;;;;;;;;;;;9.91;100.00;96590.56;5093500;28;19924;-68
2023/10/19 00:10:15;;;;;;;;;;;;;;;9.90;100.00;96603.13;5103924;28;19924;-67
2023/10/19 00:12:43;;;;;;;;;;;;;;;9.96;100.00;96593.16;5092307;28;19952;-67
2023/10/19 00:15:11;;;;;;;;;;;;;;;10.00;100.00;96575.47;5100127;28;19926;-67
2023/10/19 00:17:38;;;;;;;;;;;;;;;9.99;100.00;96566.72;5103725;28;19935;-67
2023/10/19 00:20:28;;;;;;;;;;;;;;;10.03;100.00;96549.03;5103678;28;19983;-67
2023/10/19 00:22:55;;;;;;;;;;;;;;;10.07;100.00;96571.38;5093051;28;19924;-67
2023/10/19 00:25:23;;;;;;;;;;;;;;;10.05;100.00;96557.56;5100266;28;19960;-67
2023/10/19 00:27:52;;;;;;;;;;;;;;;10.05;100.00;96554.09;5103460;28;19946;-67
2023/10/19 00:30:23;;;;;;;;;;;;;;;10.01;100.00;96545.88;5102575;28;19946;-67
2023/10/19 00:32:52;;;;;;;;;;;;;;;10.02;100.00;96544.00;5099806;28;19924;-67
2023/10/19 00:35:29;;;;;;;;;;;;;;;10.07;100.00;96543.91;5100835;28;19978;-67
2023/10/19 00:38:17;;;;;;;;;;;;;;;10.08;100.00;96538.28;5093212;28;19988;-67
2023/10/19 00:40:47;;;;;;;;;;;;;;;10.07;100.00;96533.22;5092323;28;19932;-68
2023/10/19 00:43:27;;;;;;;;;;;;;;;10.05;100.00;96530.88;5099913;28;19924;-68
2023/10/19 00:45:53;;;;;;;;;;;;;;;10.07;100.00;96527.91;5103245;28;19940;-68
2023/10/19 00:48:23;;;;;;;;;;;;;;;10.08;100.00;96521.50;5102264;28;19924;-68
2023/10/19 00:50:52;;;;;;;;;;;;;;;10.11;100.00;96518.25;5099730;28;19925;-67
2023/10/19 00:53:19;;;;;;;;;;;;;;;10.13;100.00;96514.22;5100654;28;19924;-68
2023/10/19 00:55:46;;;;;;;;;;;;;;;10.10;100.00;96500.66;5103154;28;19924;-68
2023/10/19 00:58:17;;;;;;;;;;;;;;;10.05;100.00;96503.41;5103837;28;19935;-68
2023/10/19 01:07:05;;;;;;;;;;;;;;;10.07;100.00;96494.03;5083379;28;19952;-68
2023/10/19 01:09:34;;;;;;;;;;;;;;;10.07;100.00;96495.91;5101806;28;19925;-68
2023/10/19 01:12:03;;;;;;;;;;;;;;;10.02;100.00;96493.34;5103467;28;19920;-68
2023/10/19 01:14:32;;;;;;;;;;;;;;;9.98;100.00;96484.31;5100857;28;19928;-68
2023/10/19 01:17:00;;;;;;;;;;;;;;;9.98;100.00;96473.66;5098922;28;19927;-68
2023/10/19 01:19:27;;;;;;;;;;;;;;;9.99;100.00;96485.91;5100637;28;19924;-68
2023/10/19 01:21:59;;;;;;;;;;;;;;;9.94;100.00;96485.97;5102376;28;19931;-68
2023/10/19 01:24:39;;;;;;;;;;;;;;;9.93;100.00;96481.75;5101834;28;19951;-68
2023/10/19 01:27:08;;;;;;;;;;;;;;;9.86;100.00;96482.13;5101037;28;20280;-68
2023/10/19 01:29:35;;;;;;;;;;;;;;;9.89;100.00;96484.22;5103424;28;19920;-68
2023/10/19 01:32:06;;;;;;;;;;;;;;;9.86;100.00;96478.66;5099979;28;19924;-68
2023/10/19 01:34:33;;;;;;;;;;;;;;;9.80;100.00;96472.63;5100602;28;19924;-68
2023/10/19 01:37:02;;;;;;;;;;;;;;;9.86;100.00;96468.00;5088744;28;19980;-68
2023/10/19 01:39:30;;;;;;;;;;;;;;;9.90;100.00;96467.13;5102581;28;19920;-68
2023/10/19 01:41:57;;;;;;;;;;;;;;;9.94;100.00;96465.44;5103592;28;19990;-68
2023/10/19 01:44:24;;;;;;;;;;;;;;;10.00;100.00;96468.81;5102406;28;19924;-68
2023/10/19 01:46:50;;;;;;;;;;;;;;;10.02;100.00;96472.00;5100448;28;19928;-68
2023/10/19 01:49:25;;;;;;;;;;;;;;;10.01;100.00;96457.06;5102722;28;19931;-68
2023/10/19 01:51:51;;;;;;;;;;;;;;;10.02;100.00;96458.66;5099819;28;20081;-67
2023/10/19 01:54:18;;;;;;;;;;;;;;;10.05;100.00;96460.75;5099928;28;19924;-68
2023/10/19 01:56:45;;;;;;;;;;;;;;;10.08;100.00;96460.94;5102463;28;19985;-67
2023/10/19 01:59:11;;;;;;;;;;;;;;;10.10;100.00;96455.31;5102131;28;19924;-67
2023/10/19 02:01:37;;;;;;;;;;;;;;;10.06;100.00;96451.63;5098623;28;19951;-68
2023/10/19 02:04:05;;;;;;;;;;;;;;;10.02;100.00;96448.00;5098962;28;19920;-68
2023/10/19 02:06:36;;;;;;;;;;;;;;;10.01;100.00;96449.06;5093514;28;19925;-68
2023/10/19 02:09:09;;;;;;;;;;;;;;;10.03;100.00;96452.22;5098596;28;19995;-68
2023/10/19 02:11:37;;;;;;;;;;;;;;;10.04;100.00;96445.81;5101626;28;19924;-68
2023/10/19 02:14:13;;;;;;;;;;;;;;;10.01;100.00;96444.53;5102165;28;19924;-68
2023/10/19 02:16:39;;;;;;;;;;;;;;;9.98;100.00;96447.00;5090542;28;19928;-68
2023/10/19 02:19:05;;;;;;;;;;;;;;;9.98;100.00;96445.13;5098551;28;19924;-69
2023/10/19 02:21:32;;;;;;;;;;;;;;;9.97;100.00;96445.41;5101121;28;19935;-69
2023/10/19 02:23:58;;;;;;;;;;;;;;;10.01;100.00;96449.88;5105850;28;19935;-69
2023/10/19 02:26:26;;;;;;;;;;;;;;;10.05;100.00;96448.19;5104083;28;19924;-69
2023/10/19 02:28:53;;;;;;;;;;;;;;;10.09;100.00;96443.84;5102188;28;19943;-69
2023/10/19 02:31:21;;;;;;;;;;;;;;;10.11;100.00;96439.03;5102733;28;19966;-69
2023/10/19 02:33:51;;;;;;;;;;;;;;;10.03;100.00;96428.22;5105633;28;19984;-69
2023/10/19 02:36:19;;;;;;;;;;;;;;;9.90;100.00;96421.81;5094299;28;20504;-69
2023/10/19 02:38:48;;;;;;;;;;;;;;;9.77;100.00;96410.03;5102120;28;20420;-69
2023/10/19 02:41:15;;;;;;;;;;;;;;;9.71;100.00;96405.09;5101923;28;19924;-69
2023/10/19 02:43:45;;;;;;;;;;;;;;;9.72;100.00;96415.44;5105543;28;19949;-69
2023/10/19 02:46:13;;;;;;;;;;;;;;;9.77;100.00;96410.03;5105436;28;19932;-69
2023/10/19 02:48:44;;;;;;;;;;;;;;;9.78;100.00;96411.59;5093692;28;19925;-69
2023/10/19 02:51:10;;;;;;;;;;;;;;;9.82;100.00;96405.69;5101764;28;19954;-69
2023/10/19 02:53:38;;;;;;;;;;;;;;;9.89;100.00;96419.44;5105333;28;20355;-69
2023/10/19 02:56:09;;;;;;;;;;;;;;;9.95;100.00;96415.59;5105585;28;19924;-68
2023/10/19 02:58:36;;;;;;;;;;;;;;;9.98;100.00;96413.13;5102268;28;19978;-68
2023/10/19 03:01:01;;;;;;;;;;;;;;;9.88;100.00;96404.50;5101821;28;19924;-68
2023/10/19 03:03:30;;;;;;;;;;;;;;;9.82;100.00;96400.34;5103806;28;19925;-68
2023/10/19 03:05:59;;;;;;;;;;;;;;;9.86;100.00;96407.47;5099342;28;19929;-68
2023/10/19 03:08:26;;;;;;;;;;;;;;;9.90;100.00;96403.16;5099698;28;19928;-68
2023/10/19 03:11:03;;;;;;;;;;;;;;;9.85;100.00;96389.91;5101511;28;19951;-69
2023/10/19 03:13:31;;;;;;;;;;;;;;;9.82;100.00;96400.34;5103812;28;19984;-69
2023/10/19 03:15:57;;;;;;;;;;;;;;;9.89;100.00;96398.09;5104624;28;19928;-69
2023/10/19 03:18:25;;;;;;;;;;;;;;;9.94;100.00;96400.66;5102040;28;19967;-69
2023/10/19 03:20:51;;;;;;;;;;;;;;;9.88;100.00;96402.63;5098267;28;20380;-67
2023/10/19 03:23:20;;;;;;;;;;;;;;;9.88;100.00;96407.97;5103930;28;19931;-68
2023/10/19 03:26:22;;;;;;;;;;;;;;;9.94;100.00;96395.31;5101100;28;20694;-68
2023/10/19 03:28:44;;;;;;;;;;;;;;;9.96;100.00;96403.84;5093296;28;20517;-67
2023/10/19 03:31:17;;;;;;;;;;;;;;;9.90;100.00;96397.03;5100916;28;19928;-68
2023/10/19 03:33:44;;;;;;;;;;;;;;;9.75;100.00;96393.53;5091912;28;19954;-67
2023/10/19 03:36:13;;;;;;;;;;;;;;;9.52;100.00;96377.69;5096199;28;19924;-67
2023/10/19 03:38:41;;;;;;;;;;;;;;;9.36;100.00;96363.84;5092676;28;19947;-68
2023/10/19 03:41:08;;;;;;;;;;;;;;;9.27;100.00;96352.28;5100891;28;19924;-68
2023/10/19 03:43:36;;;;;;;;;;;;;;;9.18;100.00;96362.81;5103962;28;19946;-68
2023/10/19 03:46:06;;;;;;;;;;;;;;;9.22;100.00;96363.03;5103672;28;19930;-68
2023/10/19 03:48:37;;;;;;;;;;;;;;;9.35;100.00;96364.91;5101918;28;19924;-69
2023/10/19 03:51:04;;;;;;;;;;;;;;;9.54;100.00;96363.00;5100983;28;19924;-67
2023/10/19 03:53:32;;;;;;;;;;;;;;;9.51;100.00;96350.25;5101901;28;19991;-67
2023/10/19 03:56:03;;;;;;;;;;;;;;;9.38;100.00;96340.34;5103989;28;19924;-68
2023/10/19 03:58:30;;;;;;;;;;;;;;;9.33;100.00;96339.66;5101778;28;19934;-68
2023/10/19 04:01:01;;;;;;;;;;;;;;;9.31;100.00;96333.84;5100661;28;19940;-67
2023/10/19 04:03:30;;;;;;;;;;;;;;;9.35;100.00;96330.28;5102999;28;19924;-68
2023/10/19 04:06:00;;;;;;;;;;;;;;;9.47;100.00;96340.50;5098712;28;20437;-69
2023/10/19 04:08:27;;;;;;;;;;;;;;;9.62;100.00;96338.31;5098850;28;19931;-69
2023/10/19 04:13:35;;;;;;;;;;;;;;;9.76;100.00;96327.69;5103072;28;19939;-69
2023/10/19 04:16:01;;;;;;;;;;;;;;;9.83;100.00;96329.97;5104478;28;19970;-69
2023/10/19 04:18:28;;;;;;;;;;;;;;;9.67;100.00;96319.59;5102047;28;19989;-69
2023/10/19 04:20:58;;;;;;;;;;;;;;;9.59;100.00;96317.59;5100418;28;19925;-68
2023/10/19 04:23:26;;;;;;;;;;;;;;;9.47;100.00;96305.88;5101636;28;19959;-67
2023/10/19 04:25:53;;;;;;;;;;;;;;;9.42;100.00;96287.28;5103685;28;19924;-68
2023/10/19 04:28:30;;;;;;;;;;;;;;;9.38;100.00;96287.06;5102767;28;19963;-67
2023/10/19 04:31:02;;;;;;;;;;;;;;;9.32;100.00;96276.81;5100053;28;19955;-67
2023/10/19 04:33:29;;;;;;;;;;;;;;;9.35;100.00;96277.00;5102456;28;19939;-68
2023/10/19 04:35:58;;;;;;;;;;;;;;;9.38;100.00;96271.09;5097874;28;19924;-68
2023/10/19 04:38:26;;;;;;;;;;;;;;;9.44;100.00;96277.91;5098248;28;19928;-68
2023/10/19 04:40:52;;;;;;;;;;;;;;;9.30;100.00;96261.13;5099824;28;19924;-68
2023/10/19 04:43:21;;;;;;;;;;;;;;;9.19;100.00;96273.06;5100553;28;19983;-68
2023/10/19 04:45:51;;;;;;;;;;;;;;;9.16;100.00;96284.28;5101878;28;20272;-68
2023/10/19 04:48:19;;;;;;;;;;;;;;;9.43;100.00;96299.53;5102634;28;19942;-68
2023/10/19 04:50:45;;;;;;;;;;;;;;;9.47;100.00;96300.53;5099601;28;19924;-68
2023/10/19 04:53:11;;;;;;;;;;;;;;;9.36;100.00;96299.91;5099570;28;20016;-68
2023/10/19 04:55:38;;;;;;;;;;;;;;;9.31;100.00;96297.34;5103151;28;19969;-68
2023/10/19 04:58:05;;;;;;;;;;;;;;;9.20;100.00;96314.56;5102966;28;19924;-68
2023/10/19 05:00:33;;;;;;;;;;;;;;;9.28;100.00;96315.78;5101056;28;19931;-68
2023/10/19 05:02:59;;;;;;;;;;;;;;;9.50;100.00;96337.25;5099934;28;19928;-68
2023/10/19 05:05:28;;;;;;;;;;;;;;;9.64;100.00;96332.72;5101860;28;19925;-68
2023/10/19 05:07:55;;;;;;;;;;;;;;;9.69;100.00;96329.94;5092994;28;19950;-68
2023/10/19 05:10:21;;;;;;;;;;;;;;;9.71;100.00;96323.25;5102430;28;19946;-67
2023/10/19 05:12:48;;;;;;;;;;;;;;;9.70;100.00;96321.66;5100249;28;19921;-68
2023/10/19 05:15:15;;;;;;;;;;;;;;;9.73;100.00;96337.06;5099951;28;20003;-67
2023/10/19 05:17:42;;;;;;;;;;;;;;;9.80;100.00;96344.69;5103538;28;19924;-68
2023/10/19 05:20:09;;;;;;;;;;;;;;;9.86;100.00;96350.69;5102816;28;19932;-70
2023/10/19 05:22:36;;;;;;;;;;;;;;;9.88;100.00;96338.66;5099722;28;19931;-67
2023/10/19 05:25:03;;;;;;;;;;;;;;;9.92;100.00;96360.19;5099273;28;19924;-68
2023/10/19 05:27:30;;;;;;;;;;;;;;;9.91;100.00;96353.25;5101301;28;19987;-68
2023/10/19 05:29:56;;;;;;;;;;;;;;;9.94;100.00;96355.31;5102642;28;19932;-69
2023/10/19 05:32:24;;;;;;;;;;;;;;;9.97;100.00;96357.41;5100994;28;19951;-70
2023/10/19 05:34:50;;;;;;;;;;;;;;;9.96;100.00;96343.31;5099013;28;19971;-69
2023/10/19 05:37:17;;;;;;;;;;;;;;;9.98;100.00;96343.00;5088587;28;19932;-68
2023/10/19 05:39:46;;;;;;;;;;;;;;;10.00;100.00;96362.94;5102351;28;20479;-68
2023/10/19 05:42:13;;;;;;;;;;;;;;;10.01;100.00;96363.72;5102358;28;19932;-68
2023/10/19 05:44:39;;;;;;;;;;;;;;;10.01;100.00;96358.41;5090459;28;19924;-68
2023/10/19 05:47:07;;;;;;;;;;;;;;;10.03;100.00;96361.53;5098484;28;19934;-68
2023/10/19 05:49:34;;;;;;;;;;;;;;;10.06;100.00;96363.63;5101515;28;19939;-68
2023/10/19 05:52:03;;;;;;;;;;;;;;;9.82;100.00;96339.03;5102422;28;19924;-68
2023/10/19 05:54:29;;;;;;;;;;;;;;;9.73;100.00;96342.41;5100053;28;19943;-68
2023/10/19 05:56:57;;;;;;;;;;;;;;;9.55;100.00;96308.63;5100287;28;19921;-68
2023/10/19 05:59:26;;;;;;;;;;;;;;;9.44;100.00;96309.88;5104215;28;20320;-68
2023/10/19 06:01:52;;;;;;;;;;;;;;;9.48;100.00;96312.75;5106107;28;19963;-68
2023/10/19 06:04:20;;;;;;;;;;;;;;;9.41;100.00;96310.47;5105410;28;19924;-68
2023/10/19 06:06:47;;;;;;;;;;;;;;;9.34;100.00;96301.28;5091978;28;19932;-68
2023/10/19 06:09:15;;;;;;;;;;;;;;;9.16;100.00;96274.41;5102552;28;19947;-68
2023/10/19 06:11:43;;;;;;;;;;;;;;;9.16;100.00;96284.28;5094661;28;19920;-68
2023/10/19 06:14:11;;;;;;;;;;;;;;;9.24;100.00;96291.59;5102475;28;19924;-68
2023/10/19 06:16:37;;;;;;;;;;;;;;;9.16;100.00;96298.38;5105734;28;19924;-68
2023/10/19 06:19:05;;;;;;;;;;;;;;;9.28;100.00;96313.13;5104812;28;19970;-67
2023/10/19 06:21:32;;;;;;;;;;;;;;;9.34;100.00;96317.28;5103365;28;19924;-67
2023/10/19 06:23:59;;;;;;;;;;;;;;;9.38;100.00;96303.06;5102360;28;20015;-67
2023/10/19 06:26:25;;;;;;;;;;;;;;;9.31;100.00;96302.69;5103716;28;19924;-68
2023/10/19 06:28:57;;;;;;;;;;;;;;;9.37;100.00;96309.50;5105838;28;19924;-68
2023/10/19 06:31:24;;;;;;;;;;;;;;;9.33;100.00;96305.84;5103902;28;19935;-68
2023/10/19 06:33:51;;;;;;;;;;;;;;;9.34;100.00;96299.44;5102245;28;19936;-68
2023/10/19 06:36:17;;;;;;;;;;;;;;;9.38;100.00;96297.72;5096789;28;19924;-68
2023/10/19 06:38:45;;;;;;;;;;;;;;;9.40;100.00;96300.91;5102288;28;19928;-69
2023/10/19 06:41:12;;;;;;;;;;;;;;;9.42;100.00;96306.72;5101958;28;19932;-69
2023/10/19 06:43:38;;;;;;;;;;;;;;;9.42;100.00;96314.72;5105277;28;19926;-69
2023/10/19 06:46:05;;;;;;;;;;;;;;;9.44;100.00;96312.53;5105649;28;19935;-69
2023/10/19 06:48:33;;;;;;;;;;;;;;;9.41;100.00;96317.69;5103719;28;19952;-68
2023/10/19 06:51:00;;;;;;;;;;;;;;;9.36;100.00;96301.78;5102153;28;19951;-67
2023/10/19 06:53:26;;;;;;;;;;;;;;;9.33;100.00;96289.06;5103641;28;19939;-67
2023/10/19 06:55:52;;;;;;;;;;;;;;;9.34;100.00;96290.66;5105565;28;19971;-67
2023/10/19 06:58:20;;;;;;;;;;;;;;;9.27;100.00;96285.69;5104929;28;19960;-68
2023/10/19 07:00:56;;;;;;;;;;;;;;;9.30;100.00;96293.09;5102347;28;19924;-68
2023/10/19 07:03:22;;;;;;;;;;;;;;;9.34;100.00;96295.97;5102996;28;19924;-68
2023/10/19 07:05:53;;;;;;;;;;;;;;;9.46;100.00;96315.72;5101795;28;19933;-68
2023/10/19 07:08:21;;;;;;;;;;;;;;;9.62;100.00;96317.00;5098298;28;19924;-67
2023/10/19 07:10:48;;;;;;;;;;;;;;;9.60;100.00;96315.72;5101711;28;19963;-68
2023/10/19 07:13:15;;;;;;;;;;;;;;;9.63;100.00;96320.47;5102079;28;19928;-68
2023/10/19 07:15:42;;;;;;;;;;;;;;;9.70;100.00;96315.53;5106108;28;19927;-69
2023/10/19 07:18:09;;;;;;;;;;;;;;;9.62;100.00;96314.34;5105215;28;19924;-68
2023/10/19 07:20:35;;;;;;;;;;;;;;;9.63;100.00;96305.25;5102401;28;19939;-68
2023/10/19 07:23:06;;;;;;;;;;;;;;;9.64;100.00;96301.53;5101697;28;19951;-68
2023/10/19 07:25:42;;;;;;;;;;;;;;;9.60;100.00;96300.53;5104165;28;19921;-68
2023/10/19 07:28:09;;;;;;;;;;;;;;;9.62;100.00;96302.91;5104725;28;19939;-69
2023/10/19 07:30:36;;;;;;;;;;;;;;;9.70;100.00;96304.88;5101518;28;19932;-68
2023/10/19 07:33:04;;;;;;;;;;;;;;;9.64;100.00;96290.88;5101188;28;19959;-68
2023/10/19 07:35:36;;;;;;;;;;;;;;;9.64;100.00;96300.72;5103479;28;19925;-68
2023/10/19 07:38:07;;;;;;;;;;;;;;;9.72;100.00;96297.38;5100230;28;19924;-68
2023/10/19 07:40:33;;;;;;;;;;;;;;;9.67;100.00;96300.13;5102469;28;20027;-68
2023/10/19 07:42:59;;;;;;;;;;;;;;;9.63;100.00;96299.13;5101722;28;19946;-68
2023/10/19 07:45:26;;;;;;;;;;;;;;;9.69;100.00;96297.97;5103264;28;19929;-67
2023/10/19 07:47:52;;;;;;;;;;;;;;;9.71;100.00;96296.59;5105221;28;19959;-67
2023/10/19 07:50:22;;;;;;;;;;;;;;;9.75;100.00;96294.09;5104198;28;19946;-68
2023/10/19 07:52:50;;;;;;;;;;;;;;;9.74;100.00;96296.00;5101411;28;19932;-69
2023/10/19 07:55:18;;;;;;;;;;;;;;;9.80;100.00;96298.56;5101387;28;19928;-67
2023/10/19 07:57:44;;;;;;;;;;;;;;;9.78;100.00;96291.66;5104710;28;19925;-68
2023/10/19 08:00:13;;;;;;;;;;;;;;;9.76;100.00;96285.03;5104144;28;19942;-69
2023/10/19 08:02:41;;;;;;;;;;;;;;;9.76;100.00;96293.03;5092722;28;19924;-69
2023/10/19 08:05:08;;;;;;;;;;;;;;;9.83;100.00;96292.63;5100999;28;19924;-69
2023/10/19 08:07:36;;;;;;;;;;;;;;;9.88;100.00;96284.53;5092488;28;19927;-69
2023/10/19 08:10:05;;;;;;;;;;;;;;;9.93;100.00;96292.44;5103978;28;19954;-69
2023/10/19 08:12:33;;;;;;;;;;;;;;;9.93;100.00;96300.44;5101326;28;19924;-69
2023/10/19 08:15:00;;;;;;;;;;;;;;;9.96;100.00;96287.31;5100533;28;19924;-69
2023/10/19 08:17:26;;;;;;;;;;;;;;;10.06;100.00;96283.63;5101973;28;20031;-68
2023/10/19 08:19:52;;;;;;;;;;;;;;;10.17;100.00;96288.50;5103909;28;19921;-68
2023/10/19 08:22:19;;;;;;;;;;;;;;;10.28;100.00;96289.03;5103111;28;19924;-68
2023/10/19 08:24:45;;;;;;;;;;;;;;;10.36;100.00;96284.88;5100305;28;19924;-69
2023/10/19 08:27:12;;;;;;;;;;;;;;;10.31;100.00;96277.78;5100215;28;19995;-69
2023/10/19 08:29:40;;;;;;;;;;;;;;;10.36;100.00;96275.00;5103902;28;19924;-69
2023/10/19 08:32:07;;;;;;;;;;;;;;;10.39;100.00;96279.75;5103552;28;19924;-69
2023/10/19 08:34:35;;;;;;;;;;;;;;;10.46;100.00;96285.44;5101161;28;19924;-69
2023/10/19 08:37:02;;;;;;;;;;;;;;;10.44;100.00;96282.28;5089198;28;19924;-68
2023/10/19 08:39:35;;;;;;;;;;;;;;;10.48;100.00;96271.81;5101767;28;19930;-68
2023/10/19 08:42:02;;;;;;;;;;;;;;;10.55;100.00;96270.28;5103340;28;19978;-68
2023/10/19 08:44:30;;;;;;;;;;;;;;;10.64;100.00;96275.72;5101247;28;19959;-68
2023/10/19 08:46:59;;;;;;;;;;;;;;;10.67;100.00;96273.22;5099806;28;19982;-69
2023/10/19 08:49:26;;;;;;;;;;;;;;;10.74;100.00;96268.22;5101303;28;19942;-68
2023/10/19 08:51:52;;;;;;;;;;;;;;;10.77;100.00;96264.16;5103412;28;19931;-68
2023/10/19 08:54:20;;;;;;;;;;;;;;;10.78;100.00;96255.88;5102097;28;19932;-68
2023/10/19 08:56:47;;;;;;;;;;;;;;;10.89;100.00;96256.41;5099705;28;19931;-68
2023/10/19 08:59:15;;;;;;;;;;;;;;;10.90;100.00;96246.50;5098368;28;19924;-68
2023/10/19 09:01:43;;;;;;;;;;;;;;;11.00;100.00;96256.94;5091576;28;19924;-68
2023/10/19 09:04:11;;;;;;;;;;;;;;;11.05;100.00;96260.25;5099283;28;19932;-69
2023/10/19 09:06:41;;;;;;;;;;;;;;;11.17;100.00;96257.06;5094002;28;19963;-68
2023/10/19 09:09:09;;;;;;;;;;;;;;;11.23;100.00;96259.25;5099665;28;19928;-68
2023/10/19 09:11:35;;;;;;;;;;;;;;;11.25;100.00;96265.09;5102563;28;19938;-68
2023/10/19 09:14:03;;;;;;;;;;;;;;;11.27;100.00;96265.56;5101789;28;19924;-68
2023/10/19 09:16:30;;;;;;;;;;;;;;;11.37;100.00;96253.84;5100716;28;19924;-70
2023/10/19 09:18:57;;;;;;;;;;;;;;;11.40;100.00;96253.22;5099541;28;19928;-68
2023/10/19 09:21:25;;;;;;;;;;;;;;;11.49;100.00;96262.06;5100589;28;19924;-68
2023/10/19 09:23:51;;;;;;;;;;;;;;;11.45;100.00;96253.06;5102992;28;19928;-68
2023/10/19 09:26:18;;;;;;;;;;;;;;;11.45;100.00;96258.41;5103406;28;19924;-68
2023/10/19 09:28:47;;;;;;;;;;;;;;;11.53;100.00;96256.88;5100008;28;19924;-68
2023/10/19 09:31:13;;;;;;;;;;;;;;;11.56;100.00;96265.09;5097912;28;19925;-68
2023/10/19 09:33:41;;;;;;;;;;;;;;;11.57;100.00;96261.31;5091599;28;19943;-68
2023/10/19 09:36:12;;;;;;;;;;;;;;;11.61;100.00;96256.13;5095361;28;19941;-68
2023/10/19 09:38:41;;;;;;;;;;;;;;;11.53;100.00;96265.69;5099998;28;20042;-68
2023/10/19 09:41:12;;;;;;;;;;;;;;;11.58;100.00;96273.56;5099621;28;19959;-68
2023/10/19 09:43:40;;;;;;;;;;;;;;;11.54;100.00;96267.28;5102832;28;19977;-69
2023/10/19 09:46:07;;;;;;;;;;;;;;;11.56;100.00;96275.78;5103180;28;19928;-69
2023/10/19 09:48:38;;;;;;;;;;;;;;;11.53;100.00;96279.06;5100564;28;19930;-69
2023/10/19 09:51:08;;;;;;;;;;;;;;;11.42;100.00;96285.75;5099657;28;19924;-69
2023/10/19 09:53:36;;;;;;;;;;;;;;;11.43;100.00;96282.00;5102599;28;19975;-69
2023/10/19 09:56:06;;;;;;;;;;;;;;;11.48;100.00;96283.78;5103334;28;19955;-69
2023/10/19 09:58:37;;;;;;;;;;;;;;;11.50;100.00;96285.03;5100353;28;19924;-69
2023/10/19 10:01:11;;;;;;;;;;;;;;;11.46;100.00;96284.06;5099429;28;20001;-69
2023/10/19 10:03:44;;;;;;;;;;;;;;;11.49;100.00;96286.13;5102420;28;20743;-68
2023/10/19 10:06:11;;;;;;;;;;;;;;;11.54;100.00;96283.31;5093068;28;19984;-68
2023/10/19 10:08:39;;;;;;;;;;;;;;;11.59;100.00;96274.38;5099274;28;19932;-70
2023/10/19 10:11:24;;;;;;;;;;;;;;;11.58;100.00;96268.22;5099577;28;19925;-68
2023/10/19 10:13:53;;;;;;;;;;;;;;;11.57;100.00;96269.34;5092617;28;19959;-68
2023/10/19 10:16:20;;;;;;;;;;;;;;;11.54;100.00;96250.47;5100238;28;19971;-68
2023/10/19 10:18:48;;;;;;;;;;;;;;;11.48;100.00;96249.78;5102711;28;19960;-69
2023/10/19 10:21:16;;;;;;;;;;;;;;;11.46;100.00;96248.53;5102601;28;19931;-68
2023/10/19 10:23:43;;;;;;;;;;;;;;;11.41;100.00;96241.44;5091025;28;19924;-68
2023/10/19 10:26:10;;;;;;;;;;;;;;;11.50;100.00;96236.13;5099071;28;19924;-68
2023/10/19 10:28:39;;;;;;;;;;;;;;;11.47;100.00;96240.22;5102017;28;19920;-68
2023/10/19 10:31:14;;;;;;;;;;;;;;;11.47;100.00;96239.41;5101499;28;19927;-68
2023/10/19 10:33:46;;;;;;;;;;;;;;;11.45;100.00;96242.38;5090890;28;19951;-69
2023/10/19 10:36:12;;;;;;;;;;;;;;;11.45;100.00;96236.28;5093973;28;19925;-69
2023/10/19 10:38:39;;;;;;;;;;;;;;;11.43;100.00;96233.09;5098805;28;19925;-68
2023/10/19 10:41:09;;;;;;;;;;;;;;;11.46;100.00;96237.81;5099258;28;19947;-69
2023/10/19 10:43:48;;;;;;;;;;;;;;;11.46;100.00;96232.47;5104182;28;19946;-69
2023/10/19 10:46:16;;;;;;;;;;;;;;;11.46;100.00;96232.47;5106132;28;19935;-68
2023/10/19 10:48:43;;;;;;;;;;;;;;;11.46;100.00;96224.47;5095231;28;19946;-70
2023/10/19 10:51:15;;;;;;;;;;;;;;;11.50;100.00;96218.22;5103063;28;19928;-69
2023/10/19 10:53:42;;;;;;;;;;;;;;;11.51;100.00;96213.66;5095140;28;19920;-69
2023/10/19 10:56:08;;;;;;;;;;;;;;;11.54;100.00;96205.81;5102874;28;19927;-68
2023/10/19 10:58:35;;;;;;;;;;;;;;;11.56;100.00;96198.25;5105597;28;19927;-69
2023/10/19 11:01:02;;;;;;;;;;;;;;;11.50;100.00;96194.16;5105304;28;19959;-69
2023/10/19 11:03:31;;;;;;;;;;;;;;;11.51;100.00;96200.28;5104056;28;19928;-70
2023/10/19 11:06:03;;;;;;;;;;;;;;;11.55;100.00;96199.34;5099903;28;19992;-69
2023/10/19 11:08:32;;;;;;;;;;;;;;;11.53;100.00;96182.84;5101907;28;19931;-69
2023/10/19 11:11:04;;;;;;;;;;;;;;;11.48;100.00;96188.31;5102633;28;19932;-69
2023/10/19 11:13:33;;;;;;;;;;;;;;;11.49;100.00;96178.41;5104817;28;19951;-68
2023/10/19 11:16:01;;;;;;;;;;;;;;;11.49;100.00;96178.41;5105915;28;19979;-69
2023/10/19 11:18:32;;;;;;;;;;;;;;;11.47;100.00;96178.72;5103762;28;19928;-68
2023/10/19 11:21:01;;;;;;;;;;;;;;;11.44;100.00;96176.69;5102481;28;19939;-68
2023/10/19 11:23:40;;;;;;;;;;;;;;;11.43;100.00;96152.91;5103981;28;19956;-68
2023/10/19 11:26:07;;;;;;;;;;;;;;;11.35;100.00;96152.59;5106026;28;20472;-68
2023/10/19 11:28:34;;;;;;;;;;;;;;;11.39;100.00;96134.84;5103228;28;20353;-69
2023/10/19 11:31:13;;;;;;;;;;;;;;;11.39;100.00;96131.38;5101672;28;19925;-69
2023/10/19 11:33:44;;;;;;;;;;;;;;;11.39;100.00;96124.16;5126724;27;19984;-68
2023/10/19 11:36:12;;;;;;;;;;;;;;;11.37;100.00;96128.22;5096924;28;19952;-69
2023/10/19 11:38:39;;;;;;;;;;;;;;;11.45;100.00;96124.03;5101785;28;19928;-68
2023/10/19 11:41:07;;;;;;;;;;;;;;;11.41;100.00;96118.50;5101309;28;19987;-68
2023/10/19 11:43:34;;;;;;;;;;;;;;;11.49;100.00;96123.06;5103492;28;19947;-69
2023/10/19 11:46:00;;;;;;;;;;;;;;;11.52;100.00;96124.31;5104543;28;19930;-68
2023/10/19 11:48:27;;;;;;;;;;;;;;;11.56;100.00;96120.72;5103021;28;19943;-68
2023/10/19 11:50:54;;;;;;;;;;;;;;;11.59;100.00;96124.66;5102703;28;19921;-69
2023/10/19 11:53:21;;;;;;;;;;;;;;;11.51;100.00;96123.56;5103264;28;19924;-69
2023/10/19 11:55:48;;;;;;;;;;;;;;;11.51;100.00;96117.44;5104708;28;20435;-68
2023/10/19 11:58:14;;;;;;;;;;;;;;;11.56;100.00;96114.59;5104711;28;19930;-68
2023/10/19 12:00:43;;;;;;;;;;;;;;;11.55;100.00;96105.78;5092833;28;19931;-68
2023/10/19 12:03:10;;;;;;;;;;;;;;;11.55;100.00;96100.44;5102066;28;19924;-69
2023/10/19 12:05:37;;;;;;;;;;;;;;;11.58;100.00;96102.47;5103773;28;19952;-68
2023/10/19 12:08:06;;;;;;;;;;;;;;;11.62;100.00;96098.09;5094279;28;19924;-68
2023/10/19 12:10:35;;;;;;;;;;;;;;;11.60;100.00;96094.97;5102447;28;19923;-68
2023/10/19 12:13:02;;;;;;;;;;;;;;;11.73;100.00;96093.25;5101065;28;19928;-68
2023/10/19 12:15:28;;;;;;;;;;;;;;;11.68;100.00;96090.69;5102445;28;20023;-68
2023/10/19 12:17:55;;;;;;;;;;;;;;;11.70;100.00;96086.63;5104277;28;19924;-68
2023/10/19 12:20:21;;;;;;;;;;;;;;;11.81;100.00;96087.13;5103114;28;19924;-68
2023/10/19 12:22:48;;;;;;;;;;;;;;;11.80;100.00;96078.31;5100895;28;19928;-69
2023/10/19 12:25:16;;;;;;;;;;;;;;;11.80;100.00;96082.88;5100979;28;19975;-68
2023/10/19 12:27:43;;;;;;;;;;;;;;;11.82;100.00;96076.09;5092518;28;20019;-67
2023/10/19 12:30:19;;;;;;;;;;;;;;;11.95;100.00;96068.22;5100561;28;19963;-67
2023/10/19 12:32:49;;;;;;;;;;;;;;;11.98;100.00;96062.25;5092886;28;19959;-68
2023/10/19 12:35:18;;;;;;;;;;;;;;;12.06;100.00;96064.94;5101120;28;19994;-68
2023/10/19 12:37:51;;;;;;;;;;;;;;;12.09;100.00;96061.63;5092383;28;19924;-70
2023/10/19 12:40:29;;;;;;;;;;;;;;;12.11;100.00;96072.00;5103019;28;19946;-68
2023/10/19 12:42:57;;;;;;;;;;;;;;;12.09;100.00;96068.84;5100541;28;19955;-68
2023/10/19 12:45:23;;;;;;;;;;;;;;;12.09;100.00;96063.50;5101392;28;19931;-68
2023/10/19 12:47:51;;;;;;;;;;;;;;;12.06;100.00;96058.78;5103461;28;19947;-68
2023/10/19 12:50:19;;;;;;;;;;;;;;;12.08;100.00;96067.28;5102769;28;19920;-68
2023/10/19 12:52:45;;;;;;;;;;;;;;;12.15;100.00;96064.91;5099601;28;19951;-68
2023/10/19 12:55:11;;;;;;;;;;;;;;;12.13;100.00;96070.56;5099791;28;19987;-68